Time;durP1;ratioP1;P1;durP2;ratioP2;P2;SDS_P1;SDS_P2;PMS_P1;PMS_P2;Temp;Humidity;BMP_temperature;BMP_pressure;BME280_temperature;BME280_humidity;BME280_pressure;Samples;Min_cycle;Max_cycle;Signal;HPM_P1;HPM_P2
2022/01/21 00:02:24;;;;;;;17.00;11.10;;;;;;;-1.86;95.69;100608.19;5005809;28;20101;-69
2022/01/21 00:04:49;;;;;;;19.20;11.20;;;;;;;-1.79;95.67;100599.53;4993354;28;20042;-70
2022/01/21 00:07:15;;;;;;;17.03;11.67;;;;;;;-1.84;97.27;100603.31;5011489;28;20041;-73
2022/01/21 00:09:46;;;;;;;19.77;10.93;;;;;;;-2.04;96.86;100541.69;5002589;28;20420;-72
2022/01/21 00:12:11;;;;;;;19.97;10.77;;;;;;;-1.63;95.85;100606.84;4988377;28;20030;-73
2022/01/21 00:14:37;;;;;;;25.13;11.83;;;;;;;-2.17;97.48;100597.91;4987270;28;20034;-69
2022/01/21 00:17:03;;;;;;;27.20;13.13;;;;;;;-2.11;99.95;100600.06;4991003;28;20057;-73
2022/01/21 00:19:36;;;;;;;29.27;14.37;;;;;;;-1.93;100.00;100605.91;4991224;28;20034;-69
2022/01/21 00:30:16;;;;;;;30.73;13.73;;;;;;;-2.33;96.05;100600.69;4990994;28;20037;-75
2022/01/21 00:32:44;;;;;;;26.70;14.17;;;;;;;-2.61;95.67;100572.91;4990819;28;20030;-73
2022/01/21 00:35:10;;;;;;;24.63;13.63;;;;;;;-2.52;96.06;100599.78;4985660;28;20575;-72
2022/01/21 00:37:36;;;;;;;24.13;13.87;;;;;;;-2.49;96.11;100606.00;4978259;28;20110;-75
2022/01/21 00:40:05;;;;;;;26.70;12.87;;;;;;;-2.52;96.85;100600.66;4978311;28;20462;-72
2022/01/21 00:45:11;;;;;;;27.10;14.27;;;;;;;-2.40;96.17;100598.34;4971086;28;20043;-72
2022/01/21 00:47:37;;;;;;;30.63;14.63;;;;;;;-2.53;97.24;100562.59;4970713;28;20090;-74
2022/01/21 00:50:03;;;;;;;27.27;13.50;;;;;;;-2.20;97.11;100606.84;4973044;28;20073;-75
2022/01/21 00:52:28;;;;;;;25.83;13.67;;;;;;;-2.17;96.15;100577.69;4971070;28;20039;-71
2022/01/21 00:54:54;;;;;;;24.50;14.63;;;;;;;-2.09;95.79;100563.19;4971086;28;20078;-71
2022/01/21 00:57:19;;;;;;;26.63;15.37;;;;;;;-1.84;96.50;100567.88;4971400;28;20102;-69
2022/01/21 00:59:45;;;;;;;27.10;15.43;;;;;;;-1.73;96.15;100544.38;4949367;28;20082;-72
2022/01/21 01:02:10;;;;;;;28.63;16.33;;;;;;;-1.69;97.34;100554.00;4949054;28;20031;-71
2022/01/21 01:04:36;;;;;;;29.77;17.67;;;;;;;-2.18;100.00;100545.53;4955736;28;20038;-70
2022/01/21 01:07:02;;;;;;;30.10;16.60;;;;;;;-2.13;100.00;100563.63;4972170;28;20102;-70
2022/01/21 01:09:28;;;;;;;31.73;16.20;;;;;;;-2.14;100.00;100572.88;4988670;28;20052;-70
2022/01/21 01:12:31;;;;;;;30.97;16.70;;;;;;;-1.98;100.00;100571.72;4988206;28;20034;-70
2022/01/21 01:20:08;;;;;;;29.23;17.27;;;;;;;-2.18;98.23;100544.63;4988592;28;20057;-69
2022/01/21 01:22:52;;;;;;;33.87;17.50;;;;;;;-2.22;97.81;100557.78;4988654;28;20042;-71
2022/01/21 01:28:03;;;;;;;27.07;16.40;;;;;;;-2.28;98.96;100566.59;4988402;28;20033;-70
2022/01/21 01:30:31;;;;;;;28.60;17.23;;;;;;;-2.34;100.00;100552.53;4996909;28;20561;-68
2022/01/21 01:32:58;;;;;;;27.83;15.57;;;;;;;-2.34;100.00;100530.63;5010309;28;20061;-71
2022/01/21 01:35:26;;;;;;;27.67;15.67;;;;;;;-2.20;100.00;100541.97;5010005;28;20057;-70
2022/01/21 01:40:28;;;;;;;28.03;17.37;;;;;;;-1.87;98.60;100552.41;5010343;28;20091;-70
2022/01/21 01:50:49;;;;;;;25.80;13.90;;;;;;;-1.61;98.43;100526.81;4994773;28;20045;-74
2022/01/21 01:53:17;;;;;;;22.57;12.77;;;;;;;-1.52;98.44;100511.53;5010384;28;20030;-77
2022/01/21 01:55:43;;;;;;;31.43;15.27;;;;;;;-1.90;98.07;100477.13;5010379;28;20034;-75
2022/01/21 01:58:12;;;;;;;30.43;15.57;;;;;;;-1.64;98.97;100507.19;5010327;28;20040;-75
2022/01/21 02:00:38;;;;;;;33.67;15.68;;;;;;;-1.41;99.18;100515.88;5004127;28;20480;-74
2022/01/21 02:03:13;;;;;;;28.37;15.43;;;;;;;-1.56;98.54;100454.69;4976733;28;20051;-70
2022/01/21 02:05:39;;;;;;;38.00;17.63;;;;;;;-1.21;97.42;100499.84;4970393;28;20457;-72
2022/01/21 02:08:06;;;;;;;32.33;18.40;;;;;;;-1.15;96.74;100509.59;4969960;28;20030;-70
2022/01/21 02:10:31;;;;;;;28.63;16.13;;;;;;;-1.09;96.07;100499.09;4970249;28;20031;-71
2022/01/21 02:13:04;;;;;;;25.30;15.67;;;;;;;-1.17;96.01;100483.28;4970167;28;20026;-72
2022/01/21 02:15:31;;;;;;;33.17;16.93;;;;;;;-1.17;96.58;100480.75;4970338;28;20031;-70
2022/01/21 02:23:27;;;;;;;25.23;14.10;;;;;;;-0.84;95.12;100480.09;4992207;28;20068;-74
2022/01/21 02:25:52;;;;;;;24.63;13.87;;;;;;;-0.85;95.62;100490.09;4993730;28;20512;-68
2022/01/21 02:28:19;;;;;;;20.40;12.07;;;;;;;-1.28;96.27;100482.38;4993924;28;20128;-68
2022/01/21 02:30:59;;;;;;;18.10;10.80;;;;;;;-1.36;98.59;100516.28;4993538;28;20105;-69
2022/01/21 02:33:26;;;;;;;36.07;16.83;;;;;;;-1.45;98.82;100508.78;4993669;28;20030;-69
2022/01/21 02:35:51;;;;;;;22.27;13.77;;;;;;;-1.50;98.73;100497.38;4993389;28;20030;-71
2022/01/21 02:38:17;;;;;;;23.93;13.67;;;;;;;-1.43;98.81;100509.81;4986312;28;20027;-70
2022/01/21 02:40:43;;;;;;;23.53;14.43;;;;;;;-1.79;98.27;100456.16;4942983;28;20520;-73
2022/01/21 02:43:15;;;;;;;26.07;15.90;;;;;;;-1.46;99.54;100499.41;4978467;28;20034;-78
2022/01/21 02:45:45;;;;;;;28.47;14.63;;;;;;;-1.76;100.00;100442.00;4991043;28;20038;-77
2022/01/21 02:48:11;;;;;;;30.75;15.85;;;;;;;-1.74;100.00;100470.88;4975770;28;20587;-78
2022/01/21 02:50:36;;;;;;;28.67;16.77;;;;;;;-1.71;100.00;100499.81;4993317;28;20022;-72
2022/01/21 02:55:46;;;;;;;31.70;18.23;;;;;;;-2.23;100.00;100502.88;4993423;28;20117;-73
2022/01/21 02:58:11;;;;;;;31.50;17.57;;;;;;;-2.18;100.00;100535.44;4993371;28;20417;-78
2022/01/21 03:00:37;;;;;;;44.27;21.03;;;;;;;-2.52;100.00;100516.34;4993204;28;20420;-77
2022/01/21 03:03:04;;;;;;;35.83;19.70;;;;;;;-2.67;100.00;100511.69;4992922;28;20027;-74
2022/01/21 03:05:30;;;;;;;30.77;18.07;;;;;;;-2.49;100.00;100529.28;4993139;28;20030;-76
2022/01/21 03:07:55;;;;;;;32.43;19.93;;;;;;;-2.29;100.00;100536.13;4992363;28;20104;-76
2022/01/21 03:10:21;;;;;;;30.33;18.17;;;;;;;-2.48;100.00;100477.94;4993132;28;20030;-78
2022/01/21 03:12:47;;;;;;;33.20;18.33;;;;;;;-2.17;100.00;100527.09;4993075;28;20030;-76
2022/01/21 03:15:12;;;;;;;29.67;18.47;;;;;;;-2.22;100.00;100508.06;4992814;28;20053;-75
2022/01/21 03:17:38;;;;;;;40.03;20.97;;;;;;;-2.33;100.00;100486.91;4992789;28;20057;-75
2022/01/21 03:20:06;;;;;;;38.27;20.30;;;;;;;-2.16;100.00;100513.66;4993157;28;20032;-76
2022/01/21 03:22:32;;;;;;;39.00;20.13;;;;;;;-1.88;100.00;100541.41;4992941;28;20038;-72
2022/01/21 03:24:57;;;;;;;36.23;19.80;;;;;;;-1.76;100.00;100539.03;4992694;28;20523;-68
2022/01/21 03:27:23;;;;;;;33.97;20.17;;;;;;;-1.74;100.00;100526.53;4992855;28;20022;-68
2022/01/21 03:29:48;;;;;;;36.93;20.57;;;;;;;-1.58;100.00;100533.78;4992736;28;20113;-64
2022/01/21 03:32:14;;;;;;;29.60;19.57;;;;;;;-1.42;100.00;100539.44;4992331;28;20410;-68
2022/01/21 03:34:39;;;;;;;30.47;18.50;;;;;;;-1.31;100.00;100525.13;4992148;28;20023;-66
2022/01/21 03:37:05;;;;;;;29.67;18.17;;;;;;;-1.20;99.77;100521.88;4992726;28;20030;-68
2022/01/21 03:39:30;;;;;;;34.23;19.40;;;;;;;-1.35;97.52;100486.00;4992529;28;20034;-65
2022/01/21 03:41:56;;;;;;;30.33;17.83;;;;;;;-1.18;98.10;100539.75;4992326;28;20018;-67
2022/01/21 03:44:21;;;;;;;38.53;21.07;;;;;;;-1.38;98.11;100546.53;4991952;28;20389;-67
2022/01/21 03:46:47;;;;;;;33.73;18.93;;;;;;;-1.96;100.00;100462.31;4991919;28;20484;-67
2022/01/21 03:49:12;;;;;;;32.17;18.73;;;;;;;-1.49;100.00;100532.06;4992424;28;20480;-66
2022/01/21 03:51:38;;;;;;;46.23;21.70;;;;;;;-1.57;100.00;100535.56;4992153;28;20463;-68
2022/01/21 03:54:03;;;;;;;47.27;21.53;;;;;;;-1.59;100.00;100524.44;4990902;28;20093;-68
2022/01/21 03:56:29;;;;;;;42.57;22.50;;;;;;;-1.63;100.00;100491.25;4992405;28;20030;-66
2022/01/21 03:58:54;;;;;;;37.27;20.10;;;;;;;-1.32;100.00;100509.06;4992408;28;20030;-67
2022/01/21 04:01:21;;;;;;;37.53;19.43;;;;;;;-1.17;99.44;100514.53;4991632;28;20108;-71
2022/01/21 04:03:46;;;;;;;31.47;19.17;;;;;;;-1.28;98.44;100502.63;4992293;28;20154;-66
2022/01/21 04:06:12;;;;;;;32.70;19.07;;;;;;;-1.32;99.06;100498.06;4992438;28;20514;-65
2022/01/21 04:08:38;;;;;;;32.57;18.97;;;;;;;-1.04;99.97;100520.66;4991954;28;20111;-69
2022/01/21 04:11:23;;;;;;;31.67;19.23;;;;;;;-1.16;99.99;100491.00;4950800;28;20035;-68
2022/01/21 04:13:48;;;;;;;34.13;19.10;;;;;;;-0.87;100.00;100524.59;4950305;28;20059;-70
2022/01/21 04:16:14;;;;;;;31.53;19.50;;;;;;;-0.76;99.81;100523.84;4950757;28;20054;-66
2022/01/21 04:18:39;;;;;;;31.37;18.03;;;;;;;-0.73;99.85;100529.16;4950689;28;20473;-69
2022/01/21 04:21:05;;;;;;;27.07;15.63;;;;;;;-0.83;100.00;100512.28;4950694;28;20050;-68
2022/01/21 04:23:30;;;;;;;32.17;16.10;;;;;;;-0.79;100.00;100512.56;4950695;28;20042;-65
2022/01/21 04:25:56;;;;;;;30.93;15.83;;;;;;;-0.93;100.00;100470.88;4937060;28;20098;-68
2022/01/21 04:28:21;;;;;;;27.97;14.40;;;;;;;-0.74;100.00;100498.59;4931141;29;20069;-66
2022/01/21 04:30:47;;;;;;;25.77;14.50;;;;;;;-0.55;100.00;100519.66;4947236;28;20044;-70
2022/01/21 04:33:13;;;;;;;25.23;15.20;;;;;;;-0.45;100.00;100506.03;4934603;28;20384;-69
2022/01/21 04:35:39;;;;;;;25.53;14.53;;;;;;;-0.45;100.00;100497.56;4912549;29;20148;-67
2022/01/21 04:38:08;;;;;;;25.37;15.70;;;;;;;-0.70;100.00;100470.19;4929102;29;20055;-68
2022/01/21 04:40:41;;;;;;;34.30;18.48;;;;;;;-0.81;100.00;100532.69;4913641;29;20414;-69
2022/01/21 04:48:35;;;;;;;41.77;21.73;;;;;;;-0.92;100.00;100543.56;4996859;28;20134;-68
2022/01/21 04:51:14;;;;;;;37.10;21.30;;;;;;;-0.93;100.00;100535.09;4994021;28;20045;-67
2022/01/21 04:53:42;;;;;;;36.50;19.40;;;;;;;-1.07;100.00;100558.38;5000906;28;20030;-68
2022/01/21 04:56:09;;;;;;;30.10;19.47;;;;;;;-1.11;100.00;100553.81;5000544;28;20030;-72
2022/01/21 04:58:34;;;;;;;49.40;23.03;;;;;;;-0.92;100.00;100548.66;5000337;28;20049;-65
2022/01/21 05:01:04;;;;;;;32.53;19.93;;;;;;;-0.81;100.00;100545.34;4995628;28;20108;-66
2022/01/21 05:03:30;;;;;;;33.80;20.40;;;;;;;-0.71;100.00;100560.59;4999073;28;20030;-65
2022/01/21 05:05:55;;;;;;;33.20;20.10;;;;;;;-0.64;100.00;100548.44;4994559;28;20034;-65
2022/01/21 05:08:27;;;;;;;39.33;23.10;;;;;;;-0.73;100.00;100538.41;5000232;28;20026;-68
2022/01/21 05:10:52;;;;;;;43.90;26.93;;;;;;;-0.67;100.00;100536.38;5011138;28;20085;-69
2022/01/21 05:13:22;;;;;;;41.93;25.67;;;;;;;-0.56;100.00;100533.09;5005641;28;20535;-68
2022/01/21 05:18:23;;;;;;;45.43;27.00;;;;;;;-0.45;98.80;100522.94;4999472;28;20068;-67
2022/01/21 05:20:48;;;;;;;42.57;25.93;;;;;;;-0.41;97.57;100533.47;4997054;28;20046;-68
2022/01/21 05:23:14;;;;;;;49.10;27.57;;;;;;;-0.55;96.81;100503.53;5001066;28;20029;-71
2022/01/21 05:25:39;;;;;;;44.73;26.70;;;;;;;-0.34;97.07;100542.44;5001180;28;20085;-69
2022/01/21 05:28:05;;;;;;;47.50;27.07;;;;;;;-0.54;97.31;100510.38;4999568;28;20031;-70
2022/01/21 05:30:30;;;;;;;49.83;27.53;;;;;;;-0.35;96.42;100535.59;4999818;28;20460;-69
2022/01/21 05:32:56;;;;;;;43.77;25.30;;;;;;;-0.39;96.96;100572.50;4999647;28;20538;-69
2022/01/21 05:35:22;;;;;;;44.23;25.63;;;;;;;-0.62;98.85;100585.81;5001215;28;20030;-67
2022/01/21 05:37:47;;;;;;;49.00;29.77;;;;;;;-0.72;100.00;100584.16;4999194;28;20089;-66
2022/01/21 05:40:14;;;;;;;47.10;26.97;;;;;;;-0.96;100.00;100561.81;5000870;28;20029;-66
2022/01/21 05:42:40;;;;;;;40.97;24.00;;;;;;;-0.77;100.00;100599.75;4994158;28;20038;-66
2022/01/21 05:47:35;;;;;;;40.50;23.02;;;;;;;-0.85;100.00;100621.91;4992510;28;20512;-65
2022/01/21 05:50:02;;;;;;;41.03;21.30;;;;;;;-0.76;100.00;100634.47;5009746;28;20049;-70
2022/01/21 05:52:37;;;;;;;33.53;19.03;;;;;;;-0.88;100.00;100649.53;5010540;28;20029;-65
2022/01/21 05:55:03;;;;;;;33.13;20.30;;;;;;;-0.91;100.00;100619.75;4993568;28;20026;-66
2022/01/21 05:57:30;;;;;;;36.70;20.23;;;;;;;-0.74;100.00;100651.59;5011143;28;20480;-69
2022/01/21 05:59:56;;;;;;;28.60;18.27;;;;;;;-0.89;100.00;100602.16;4991609;28;20037;-69
2022/01/21 06:02:21;;;;;;;30.70;17.10;;;;;;;-0.62;100.00;100641.63;4996470;28;20072;-69
2022/01/21 06:04:50;;;;;;;28.20;16.70;;;;;;;-0.55;99.85;100621.09;5003332;28;20050;-69
2022/01/21 06:07:16;;;;;;;28.10;16.63;;;;;;;-0.59;100.00;100610.56;5003670;28;20023;-69
2022/01/21 06:09:43;;;;;;;27.77;16.97;;;;;;;-0.48;99.81;100637.69;5003093;28;20026;-69
2022/01/21 06:12:09;;;;;;;36.83;21.77;;;;;;;-0.55;99.64;100632.84;5004539;28;20018;-70
2022/01/21 06:14:36;;;;;;;29.93;18.90;;;;;;;-0.55;98.94;100631.22;5001679;28;20022;-70
2022/01/21 06:17:02;;;;;;;28.87;17.90;;;;;;;-0.50;98.47;100632.50;4995968;28;20035;-70
2022/01/21 06:19:27;;;;;;;30.70;17.33;;;;;;;-0.43;98.66;100643.16;5013574;28;20523;-69
2022/01/21 06:21:53;;;;;;;29.67;18.63;;;;;;;-0.34;98.14;100648.97;5013845;28;20030;-70
2022/01/21 06:24:19;;;;;;;39.37;22.20;;;;;;;-0.33;97.92;100641.50;5013702;28;20516;-70
2022/01/21 06:26:45;;;;;;;37.23;21.60;;;;;;;-0.17;95.97;100653.81;5013634;28;20097;-70
2022/01/21 06:29:10;;;;;;;33.23;20.53;;;;;;;-0.15;95.94;100653.91;5013246;28;20065;-70
2022/01/21 06:31:36;;;;;;;40.50;22.30;;;;;;;-0.02;95.03;100671.94;5013972;28;20082;-70
2022/01/21 06:34:01;;;;;;;37.30;21.13;;;;;;;-0.07;95.22;100662.19;5013405;28;20709;-69
2022/01/21 06:36:28;;;;;;;44.20;28.97;;;;;;;0.13;94.82;100694.28;5013514;28;20026;-69
2022/01/21 06:38:54;;;;;;;38.40;22.10;;;;;;;0.11;95.00;100696.72;5013290;28;20040;-69
2022/01/21 06:41:19;;;;;;;30.13;18.57;;;;;;;0.11;95.39;100706.88;4971791;28;20035;-70
2022/01/21 06:43:45;;;;;;;28.37;19.70;;;;;;;-0.02;96.25;100679.56;4965443;28;20528;-69
2022/01/21 06:46:11;;;;;;;30.07;17.90;;;;;;;-0.06;96.61;100676.66;4959615;28;20130;-69
2022/01/21 06:48:37;;;;;;;26.97;17.00;;;;;;;0.24;96.18;100721.44;4952307;29;20055;-67
2022/01/21 06:51:03;;;;;;;31.03;17.97;;;;;;;0.01;96.35;100698.34;4952298;29;20039;-69
2022/01/21 06:53:29;;;;;;;26.77;17.17;;;;;;;0.04;97.90;100724.88;4952238;29;20087;-69
2022/01/21 06:55:54;;;;;;;32.50;17.07;;;;;;;-0.02;99.74;100726.91;4951887;28;20073;-69
2022/01/21 06:58:20;;;;;;;31.70;16.47;;;;;;;-0.17;100.00;100716.38;4960588;28;20061;-69
2022/01/21 07:00:46;;;;;;;28.17;17.60;;;;;;;-0.22;100.00;100731.19;4963416;28;20159;-69
2022/01/21 07:03:11;;;;;;;29.67;17.10;;;;;;;-0.38;100.00;100685.00;4961469;28;20460;-69
2022/01/21 07:05:38;;;;;;;26.60;16.17;;;;;;;-0.02;100.00;100721.84;4962273;28;20054;-69
2022/01/21 07:08:03;;;;;;;23.73;16.83;;;;;;;-0.10;100.00;100738.06;4956892;28;20035;-69
2022/01/21 07:10:30;;;;;;;25.13;17.20;;;;;;;-0.37;100.00;100686.78;4962011;28;20039;-69
2022/01/21 07:12:56;;;;;;;31.30;17.83;;;;;;;-0.04;100.00;100728.41;4959344;28;20039;-70
2022/01/21 07:15:22;;;;;;;26.83;18.00;;;;;;;-0.42;100.00;100685.53;4962252;28;20109;-70
2022/01/21 07:17:52;;;;;;;29.23;17.83;;;;;;;-0.16;100.00;100735.91;4964917;28;20537;-69
2022/01/21 07:20:17;;;;;;;;;;;;;;;-0.10;100.00;100736.44;5001920;28;20025;-69
2022/01/21 07:22:43;;;;;;;30.60;17.13;;;;;;;0.03;100.00;100751.03;5003244;28;19913;-70
2022/01/21 07:25:09;;;;;;;30.20;17.70;;;;;;;0.00;100.00;100753.31;5002058;28;20034;-70
2022/01/21 07:27:34;;;;;;;27.40;18.53;;;;;;;0.17;100.00;100748.75;5001696;28;20087;-70
2022/01/21 07:30:01;;;;;;;28.70;19.33;;;;;;;0.17;100.00;100746.22;4992733;28;20030;-70
2022/01/21 07:32:27;;;;;;;30.27;18.17;;;;;;;0.27;100.00;100753.81;4992629;28;20404;-70
2022/01/21 07:34:53;;;;;;;27.57;18.40;;;;;;;0.37;100.00;100760.56;4989933;28;20031;-68
2022/01/21 07:37:18;;;;;;;26.00;17.93;;;;;;;0.17;100.00;100741.13;4991803;28;20092;-70
2022/01/21 07:39:44;;;;;;;54.73;27.67;;;;;;;0.39;100.00;100769.19;4992589;28;20357;-67
2022/01/21 07:42:09;;;;;;;77.63;37.83;;;;;;;0.32;100.00;100765.25;4992421;28;20096;-70
2022/01/21 07:44:35;;;;;;;45.87;27.57;;;;;;;0.40;100.00;100778.56;4992509;28;20018;-70
2022/01/21 07:47:01;;;;;;;52.03;29.30;;;;;;;0.29;100.00;100770.09;4991801;28;20053;-69
2022/01/21 07:49:26;;;;;;;47.93;28.43;;;;;;;0.23;100.00;100767.91;4992523;28;20472;-70
2022/01/21 07:51:52;;;;;;;39.53;24.57;;;;;;;0.31;100.00;100773.63;4992301;28;20117;-69
2022/01/21 07:54:17;;;;;;;30.43;20.70;;;;;;;0.30;100.00;100802.34;4992052;28;20488;-70
2022/01/21 07:56:43;;;;;;;37.43;23.73;;;;;;;-0.04;100.00;100758.88;4973433;28;20113;-69
2022/01/21 07:59:11;;;;;;;41.97;23.93;;;;;;;0.19;100.00;100801.44;5001890;28;20057;-71
2022/01/21 08:01:36;;;;;;;35.60;23.33;;;;;;;0.24;100.00;100819.59;5000916;28;20093;-70
2022/01/21 08:04:02;;;;;;;38.70;23.67;;;;;;;0.16;100.00;100806.25;5001905;28;20029;-70
2022/01/21 08:06:29;;;;;;;37.20;22.90;;;;;;;0.10;100.00;100809.16;5002088;28;20066;-70
2022/01/21 08:08:54;;;;;;;35.27;21.23;;;;;;;0.17;100.00;100825.78;5000257;28;20084;-69
2022/01/21 08:11:21;;;;;;;34.03;21.77;;;;;;;0.27;100.00;100833.41;5001468;28;20500;-70
2022/01/21 08:13:46;;;;;;;34.30;22.23;;;;;;;0.19;100.00;100803.06;4994427;28;20030;-69
2022/01/21 08:16:12;;;;;;;36.40;22.27;;;;;;;0.39;100.00;100832.69;4991796;28;20026;-69
2022/01/21 08:18:38;;;;;;;37.63;23.10;;;;;;;0.40;100.00;100842.97;4991553;28;20026;-69
2022/01/21 08:21:04;;;;;;;36.63;21.63;;;;;;;0.35;100.00;100835.72;5000003;28;20034;-69
2022/01/21 08:23:29;;;;;;;34.97;21.73;;;;;;;0.16;100.00;100806.25;5001161;28;20072;-69
2022/01/21 08:25:55;;;;;;;32.73;20.70;;;;;;;0.37;100.00;100849.44;5001639;28;20388;-69
2022/01/21 08:28:20;;;;;;;34.97;22.70;;;;;;;0.34;100.00;100855.16;4996908;28;20029;-69
2022/01/21 08:30:46;;;;;;;40.43;25.30;;;;;;;0.38;100.00;100854.63;4974819;28;20502;-69
2022/01/21 08:33:11;;;;;;;36.93;23.53;;;;;;;0.36;100.00;100856.16;4994644;28;20035;-70
2022/01/21 08:35:37;;;;;;;35.90;23.53;;;;;;;0.40;100.00;100862.38;4993386;28;20038;-68
2022/01/21 08:38:04;;;;;;;35.20;22.33;;;;;;;0.39;100.00;100861.50;4992470;28;20040;-69
2022/01/21 08:40:29;;;;;;;37.37;22.70;;;;;;;0.21;100.00;100844.72;5000487;28;20477;-72
2022/01/21 08:42:55;;;;;;;35.67;23.37;;;;;;;0.35;100.00;100867.09;4987027;28;20044;-72
2022/01/21 08:45:22;;;;;;;37.43;24.27;;;;;;;0.41;100.00;100882.84;5002175;28;20556;-72
2022/01/21 08:47:49;;;;;;;38.10;25.00;;;;;;;0.38;100.00;100874.09;4993403;28;20129;-72
2022/01/21 08:50:18;;;;;;;40.60;26.17;;;;;;;0.45;100.00;100892.50;4999021;28;20056;-70
2022/01/21 08:52:44;;;;;;;40.37;26.80;;;;;;;0.52;100.00;100896.44;5000415;28;20048;-71
2022/01/21 08:55:12;;;;;;;44.43;28.27;;;;;;;0.52;100.00;100888.81;5000661;28;20026;-71
2022/01/21 08:57:40;;;;;;;45.60;28.53;;;;;;;0.56;100.00;100892.50;4999480;28;20026;-71
2022/01/21 09:00:09;;;;;;;49.43;32.20;;;;;;;0.56;100.00;100907.75;5001081;28;20034;-71
2022/01/21 09:02:34;;;;;;;53.97;35.95;;;;;;;0.56;100.00;100915.38;4999947;28;20125;-70
2022/01/21 09:05:00;;;;;;;43.10;26.70;;;;;;;0.59;100.00;100910.56;5000220;28;20548;-70
2022/01/21 09:07:25;;;;;;;32.73;22.67;;;;;;;0.30;100.00;100868.38;5001488;28;20041;-70
2022/01/21 09:09:51;;;;;;;34.00;21.33;;;;;;;0.59;100.00;100910.56;4995916;28;20100;-70
2022/01/21 09:12:16;;;;;;;34.97;21.77;;;;;;;0.54;100.00;100894.94;4991192;28;20069;-70
2022/01/21 09:14:42;;;;;;;34.63;21.03;;;;;;;0.55;100.00;100893.25;4991385;28;20065;-70
2022/01/21 09:17:07;;;;;;;36.20;21.40;;;;;;;0.64;100.00;100911.84;4991123;28;20026;-69
2022/01/21 09:19:33;;;;;;;37.13;22.87;;;;;;;0.66;100.00;100912.88;4988874;28;20074;-70
2022/01/21 09:22:02;;;;;;;39.77;24.10;;;;;;;0.63;100.00;100902.44;4990999;28;20092;-69
2022/01/21 09:24:28;;;;;;;36.95;23.60;;;;;;;0.64;100.00;100897.47;4991110;28;20062;-67
2022/01/21 09:26:54;;;;;;;42.93;25.93;;;;;;;0.74;100.00;100908.41;4991046;28;20027;-65
2022/01/21 09:29:19;;;;;;;38.97;23.83;;;;;;;0.55;100.00;100856.06;4995446;28;20034;-66
2022/01/21 09:31:45;;;;;;;35.70;24.47;;;;;;;0.78;100.00;100895.19;4999507;28;20028;-69
2022/01/21 09:34:11;;;;;;;40.03;23.83;;;;;;;0.69;100.00;100880.06;5003024;28;20029;-68
2022/01/21 09:36:36;;;;;;;43.53;32.00;;;;;;;0.57;100.00;100854.50;5000987;28;20129;-67
2022/01/21 09:39:03;;;;;;;39.00;25.70;;;;;;;0.73;100.00;100874.47;4988654;28;20030;-68
2022/01/21 09:41:29;;;;;;;42.07;26.27;;;;;;;0.73;100.00;100882.09;5002962;28;20433;-67
2022/01/21 09:43:56;;;;;;;43.20;27.07;;;;;;;0.81;100.00;100887.84;4993754;28;20049;-67
2022/01/21 09:46:31;;;;;;;41.77;27.37;;;;;;;0.76;100.00;100877.28;5013220;28;20072;-68
2022/01/21 09:49:07;;;;;;;46.20;26.93;;;;;;;0.73;100.00;100888.84;5012864;28;20099;-70
2022/01/21 09:51:35;;;;;;;41.23;26.93;;;;;;;0.66;100.00;100873.84;4994764;28;20424;-72
2022/01/21 09:54:02;;;;;;;39.03;24.57;;;;;;;0.72;100.00;100874.34;4996665;28;20029;-73
2022/01/21 09:56:29;;;;;;;34.67;22.80;;;;;;;0.69;100.00;100864.81;4982821;28;20027;-71
2022/01/21 09:58:55;;;;;;;36.23;23.50;;;;;;;0.85;100.00;100859.34;4999366;28;20037;-78
2022/01/21 10:01:21;;;;;;;34.83;22.87;;;;;;;0.82;100.00;100868.38;5003062;28;20026;-74
2022/01/21 10:03:49;;;;;;;34.50;21.17;;;;;;;0.82;100.00;100864.16;5004311;28;20026;-73
2022/01/21 10:06:17;;;;;;;37.10;22.90;;;;;;;0.90;100.00;100865.69;4999934;28;20497;-74
2022/01/21 10:08:44;;;;;;;33.30;20.83;;;;;;;0.70;100.00;100822.50;5004072;28;20045;-77
2022/01/21 10:11:11;;;;;;;32.40;20.60;;;;;;;0.96;100.00;100855.16;5013845;28;20034;-77
2022/01/21 10:13:37;;;;;;;34.40;22.33;;;;;;;1.02;100.00;100852.22;5001288;28;20113;-76
2022/01/21 10:16:05;;;;;;;43.20;26.47;;;;;;;1.07;100.00;100846.75;4997742;28;20632;-79
2022/01/21 10:18:30;;;;;;;38.53;23.67;;;;;;;0.96;100.00;100817.03;4997850;28;20489;-72
2022/01/21 10:21:12;;;;;;;17.60;11.50;;;;;;;0.78;100.00;100829.97;5000253;28;20037;-81
2022/01/21 10:23:40;;;;;;;21.13;13.37;;;;;;;0.90;100.00;100847.91;4999805;28;20038;-82
2022/01/21 10:26:12;;;;;;;18.70;11.10;;;;;;;0.83;100.00;100842.19;4994408;28;20077;-81
2022/01/21 10:28:41;;;;;;;20.20;13.77;;;;;;;0.65;100.00;100819.59;4998674;28;20037;-79
2022/01/21 10:31:19;;;;;;;16.20;10.27;;;;;;;0.77;100.00;100843.47;4993293;28;20049;-72
2022/01/21 10:33:53;;;;;;;12.03;6.07;;;;;;;0.47;100.00;100807.16;4997248;28;20022;-74
2022/01/21 10:36:33;;;;;;;12.07;7.20;;;;;;;0.64;100.00;100843.22;4997244;28;20115;-79
2022/01/21 10:39:17;;;;;;;10.13;5.90;;;;;;;0.45;100.00;100795.09;4995090;28;20389;-85
2022/01/21 10:41:44;;;;;;;10.23;6.37;;;;;;;0.75;100.00;100839.03;4995789;28;20030;-81
2022/01/21 10:44:12;;;;;;;9.80;5.27;;;;;;;0.73;100.00;100826.19;4998177;28;20057;-79
2022/01/21 10:46:46;;;;;;;6.50;3.77;;;;;;;0.81;100.00;100821.75;5002154;28;20072;-78
2022/01/21 10:49:15;;;;;;;8.90;5.87;;;;;;;0.65;100.00;100776.41;4991907;28;20042;-77
2022/01/21 10:51:49;;;;;;;7.35;4.13;;;;;;;0.86;100.00;100811.94;4997776;28;20060;-76
2022/01/21 10:54:18;;;;;;;6.63;3.83;;;;;;;0.85;100.00;100803.44;4998057;28;20034;-74
2022/01/21 10:57:02;;;;;;;6.85;3.92;;;;;;;0.88;100.00;100812.97;4973419;28;20043;-74
2022/01/21 10:59:57;;;;;;;5.10;2.57;;;;;;;0.70;100.00;100808.16;4977667;28;20083;-75
2022/01/21 11:02:53;;;;;;;7.67;3.93;;;;;;;0.75;100.00;100803.47;4902001;29;20163;-75
2022/01/21 11:05:24;;;;;;;8.57;4.03;;;;;;;0.52;100.00;100751.63;4902218;29;20040;-76
2022/01/21 11:07:54;;;;;;;30.73;24.30;;;;;;;0.78;100.00;100793.53;4903082;29;20205;-78
2022/01/21 11:10:32;;;;;;;6.03;4.17;;;;;;;0.63;100.00;100760.13;4901650;29;20039;-75
2022/01/21 11:12:58;;;;;;;3.80;2.57;;;;;;;0.70;100.00;100782.75;4903475;29;20111;-75
2022/01/21 11:15:24;;;;;;;5.30;3.27;;;;;;;0.68;100.00;100783.38;4901779;29;20036;-73
2022/01/21 11:17:58;;;;;;;6.70;4.13;;;;;;;0.70;100.00;100779.28;4895004;29;20044;-75
2022/01/21 11:20:37;;;;;;;5.17;4.00;;;;;;;0.50;100.00;100730.31;4879130;29;20048;-72
2022/01/21 11:23:03;;;;;;;4.05;2.50;;;;;;;0.70;100.00;100766.59;4894900;29;20040;-75
2022/01/21 11:25:47;;;;;;;4.23;2.00;;;;;;;0.69;100.00;100769.94;4894852;29;20047;-75
2022/01/21 11:28:16;;;;;;;5.90;4.10;;;;;;;0.68;100.00;100760.53;4907888;29;20067;-70
2022/01/21 11:30:42;;;;;;;7.23;3.60;;;;;;;0.74;100.00;100759.34;4915191;29;20036;-74
2022/01/21 11:33:07;;;;;;;6.30;4.00;;;;;;;0.74;100.00;100744.09;4913777;29;20048;-71
2022/01/21 11:35:33;;;;;;;6.37;4.10;;;;;;;0.90;100.00;100752.97;4915446;29;20040;-76
2022/01/21 11:38:04;;;;;;;7.70;4.90;;;;;;;0.90;100.00;100742.81;4912375;29;20032;-77
2022/01/21 11:40:30;;;;;;;9.93;5.17;;;;;;;0.97;100.00;100752.69;4972987;28;20018;-76
2022/01/21 11:42:57;;;;;;;12.27;6.80;;;;;;;0.97;100.00;100755.22;4971181;28;20050;-75
2022/01/21 11:46:03;;;;;;;11.53;7.50;;;;;;;0.92;100.00;100761.59;4972622;28;20039;-81
2022/01/21 11:50:50;;;;;;;12.57;7.47;;;;;;;0.61;100.00;100690.50;4972509;28;20433;-82
2022/01/21 11:53:44;;;;;;;13.20;9.50;;;;;;;0.95;100.00;100749.16;4954918;28;20768;-75
2022/01/21 11:56:28;;;;;;;13.00;8.60;;;;;;;0.86;100.00;100753.47;4971797;28;20026;-74
2022/01/21 11:59:12;;;;;;;15.67;10.67;;;;;;;0.82;100.00;100759.97;4972111;28;20109;-77
2022/01/21 12:01:49;;;;;;;17.10;11.03;;;;;;;0.86;100.00;100759.47;4972163;28;20027;-77
2022/01/21 12:04:38;;;;;;;18.27;11.30;;;;;;;0.89;100.00;100754.59;4971881;28;20524;-79